sensor_id;sensor_type;location;lat;lon;timestamp;pressure;altitude;pressure_sealevel;temperature;humidity
33151;BME280;19508;42.578;23.416;2023-03-01T00:00:26;94148.53;;;7.75;78.12
33151;BME280;19508;42.578;23.416;2023-03-01T00:02:51;94150.88;;;7.71;78.19
33151;BME280;19508;42.578;23.416;2023-03-01T00:05:17;94152.59;;;7.66;78.32
33151;BME280;19508;42.578;23.416;2023-03-01T00:07:42;94148.00;;;7.54;78.51
33151;BME280;19508;42.578;23.416;2023-03-01T00:10:08;94147.34;;;7.41;78.85
33151;BME280;19508;42.578;23.416;2023-03-01T00:12:34;94144.59;;;7.47;78.13
33151;BME280;19508;42.578;23.416;2023-03-01T00:14:59;94153.66;;;7.46;78.23
33151;BME280;19508;42.578;23.416;2023-03-01T00:17:24;94146.41;;;7.35;78.58
33151;BME280;19508;42.578;23.416;2023-03-01T00:19:50;94139.84;;;7.31;78.30
33151;BME280;19508;42.578;23.416;2023-03-01T00:22:15;94143.38;;;7.43;78.17
33151;BME280;19508;42.578;23.416;2023-03-01T00:24:41;94132.09;;;7.41;77.87
33151;BME280;19508;42.578;23.416;2023-03-01T00:27:06;94130.91;;;7.37;78.38
33151;BME280;19508;42.578;23.416;2023-03-01T00:29:32;94129.41;;;7.41;77.88
33151;BME280;19508;42.578;23.416;2023-03-01T00:31:58;94123.22;;;7.41;77.65
33151;BME280;19508;42.578;23.416;2023-03-01T00:34:23;94109.22;;;7.27;77.19
33151;BME280;19508;42.578;23.416;2023-03-01T00:36:48;94108.81;;;7.23;77.45
33151;BME280;19508;42.578;23.416;2023-03-01T00:39:14;94118.97;;;7.51;76.25
33151;BME280;19508;42.578;23.416;2023-03-01T00:41:41;94124.78;;;7.48;76.29
33151;BME280;19508;42.578;23.416;2023-03-01T00:44:06;94110.41;;;7.43;75.86
33151;BME280;19508;42.578;23.416;2023-03-01T00:46:32;94117.44;;;7.44;75.77
33151;BME280;19508;42.578;23.416;2023-03-01T00:48:57;94114.13;;;7.12;76.55
33151;BME280;19508;42.578;23.416;2023-03-01T00:51:26;94112.34;;;7.05;76.88
33151;BME280;19508;42.578;23.416;2023-03-01T00:53:53;94112.41;;;7.17;76.81
33151;BME280;19508;42.578;23.416;2023-03-01T00:56:19;94113.63;;;7.03;76.95
33151;BME280;19508;42.578;23.416;2023-03-01T00:58:45;94105.19;;;7.18;76.72
33151;BME280;19508;42.578;23.416;2023-03-01T01:01:13;94100.16;;;7.10;76.53
33151;BME280;19508;42.578;23.416;2023-03-01T01:06:25;94111.44;;;7.30;76.22
33151;BME280;19508;42.578;23.416;2023-03-01T01:08:52;94108.53;;;7.31;76.52
33151;BME280;19508;42.578;23.416;2023-03-01T01:11:18;94113.06;;;7.31;76.49
33151;BME280;19508;42.578;23.416;2023-03-01T01:13:45;94110.72;;;7.34;76.55
33151;BME280;19508;42.578;23.416;2023-03-01T01:16:11;94106.81;;;7.37;76.20
33151;BME280;19508;42.578;23.416;2023-03-01T01:18:37;94106.84;;;7.19;76.68
33151;BME280;19508;42.578;23.416;2023-03-01T01:21:08;94103.66;;;7.10;76.66
33151;BME280;19508;42.578;23.416;2023-03-01T01:23:34;94115.91;;;6.99;77.01
33151;BME280;19508;42.578;23.416;2023-03-01T01:26:04;94115.03;;;7.05;77.21
33151;BME280;19508;42.578;23.416;2023-03-01T01:28:30;94112.41;;;6.99;77.08
33151;BME280;19508;42.578;23.416;2023-03-01T01:30:55;94116.97;;;6.80;77.42
33151;BME280;19508;42.578;23.416;2023-03-01T01:33:21;94118.66;;;6.74;78.17
33151;BME280;19508;42.578;23.416;2023-03-01T01:35:46;94105.28;;;6.74;77.69
33151;BME280;19508;42.578;23.416;2023-03-01T01:38:12;94113.34;;;6.93;77.75
33151;BME280;19508;42.578;23.416;2023-03-01T01:40:43;94104.81;;;7.14;76.85
33151;BME280;19508;42.578;23.416;2023-03-01T01:43:38;94109.78;;;7.29;76.16
33151;BME280;19508;42.578;23.416;2023-03-01T01:48:52;94105.06;;;7.13;76.82
33151;BME280;19508;42.578;23.416;2023-03-01T01:51:20;94110.09;;;7.21;76.25
33151;BME280;19508;42.578;23.416;2023-03-01T01:53:53;94106.53;;;7.27;76.25
33151;BME280;19508;42.578;23.416;2023-03-01T01:56:23;94103.19;;;7.13;76.21
33151;BME280;19508;42.578;23.416;2023-03-01T01:58:51;94101.88;;;7.04;76.85
33151;BME280;19508;42.578;23.416;2023-03-01T02:01:17;94110.41;;;7.13;76.33
33151;BME280;19508;42.578;23.416;2023-03-01T02:03:44;94103.44;;;7.12;76.62
33151;BME280;19508;42.578;23.416;2023-03-01T02:06:17;94099.72;;;6.94;77.53
33151;BME280;19508;42.578;23.416;2023-03-01T02:08:45;94098.00;;;7.00;77.63
33151;BME280;19508;42.578;23.416;2023-03-01T02:11:13;94087.50;;;6.98;77.45
33151;BME280;19508;42.578;23.416;2023-03-01T02:13:40;94079.56;;;6.73;78.49
33151;BME280;19508;42.578;23.416;2023-03-01T02:16:14;94083.88;;;6.74;78.97
33151;BME280;19508;42.578;23.416;2023-03-01T02:18:41;94090.03;;;6.57;79.50
33151;BME280;19508;42.578;23.416;2023-03-01T02:23:51;94098.22;;;6.62;80.08
33151;BME280;19508;42.578;23.416;2023-03-01T02:28:56;94096.13;;;6.64;79.78
33151;BME280;19508;42.578;23.416;2023-03-01T02:31:22;94090.88;;;6.75;79.72
33151;BME280;19508;42.578;23.416;2023-03-01T02:34:23;94109.41;;;6.77;79.77
33151;BME280;19508;42.578;23.416;2023-03-01T02:37:14;94108.88;;;6.68;80.56
33151;BME280;19508;42.578;23.416;2023-03-01T02:39:47;94110.44;;;6.76;79.97
33151;BME280;19508;42.578;23.416;2023-03-01T02:42:21;94102.53;;;6.63;80.58
33151;BME280;19508;42.578;23.416;2023-03-01T02:44:49;94106.38;;;6.48;81.45
33151;BME280;19508;42.578;23.416;2023-03-01T02:47:14;94108.25;;;6.48;81.45
33151;BME280;19508;42.578;23.416;2023-03-01T02:49:40;94112.34;;;6.69;80.67
33151;BME280;19508;42.578;23.416;2023-03-01T02:55:17;94106.56;;;6.72;80.76
33151;BME280;19508;42.578;23.416;2023-03-01T02:57:45;94104.41;;;6.62;80.82
33151;BME280;19508;42.578;23.416;2023-03-01T03:00:19;94102.25;;;6.71;80.17
33151;BME280;19508;42.578;23.416;2023-03-01T03:02:50;94104.16;;;6.82;80.07
33151;BME280;19508;42.578;23.416;2023-03-01T03:05:23;94101.47;;;7.00;79.04
33151;BME280;19508;42.578;23.416;2023-03-01T03:07:49;94100.66;;;7.00;78.91
33151;BME280;19508;42.578;23.416;2023-03-01T03:10:32;94110.56;;;6.81;79.48
33151;BME280;19508;42.578;23.416;2023-03-01T03:13:00;94105.75;;;6.71;79.88
33151;BME280;19508;42.578;23.416;2023-03-01T03:15:27;94112.44;;;6.81;79.83
33151;BME280;19508;42.578;23.416;2023-03-01T03:17:54;94093.75;;;6.74;79.46
33151;BME280;19508;42.578;23.416;2023-03-01T03:20:22;94103.41;;;6.75;79.59
33151;BME280;19508;42.578;23.416;2023-03-01T03:22:50;94109.59;;;6.57;80.58
33151;BME280;19508;42.578;23.416;2023-03-01T03:25:16;94107.53;;;6.77;80.17
33151;BME280;19508;42.578;23.416;2023-03-01T03:27:44;94107.97;;;6.93;79.61
33151;BME280;19508;42.578;23.416;2023-03-01T03:30:12;94111.09;;;6.90;79.84
33151;BME280;19508;42.578;23.416;2023-03-01T03:32:43;94112.06;;;6.95;79.97
33151;BME280;19508;42.578;23.416;2023-03-01T03:35:18;94104.34;;;6.87;80.30
33151;BME280;19508;42.578;23.416;2023-03-01T03:37:44;94109.81;;;6.56;81.61
33151;BME280;19508;42.578;23.416;2023-03-01T03:40:30;94107.81;;;6.51;81.80
33151;BME280;19508;42.578;23.416;2023-03-01T03:42:57;94111.03;;;6.60;81.87
33151;BME280;19508;42.578;23.416;2023-03-01T03:45:22;94111.91;;;6.54;82.10
33151;BME280;19508;42.578;23.416;2023-03-01T03:47:48;94119.34;;;6.52;82.30
33151;BME280;19508;42.578;23.416;2023-03-01T03:50:15;94106.56;;;6.72;81.71
33151;BME280;19508;42.578;23.416;2023-03-01T03:52:41;94101.66;;;6.69;81.72
33151;BME280;19508;42.578;23.416;2023-03-01T03:55:08;94107.97;;;6.74;81.23
33151;BME280;19508;42.578;23.416;2023-03-01T03:57:41;94108.06;;;6.68;81.93
33151;BME280;19508;42.578;23.416;2023-03-01T04:00:11;94110.44;;;6.76;81.58
33151;BME280;19508;42.578;23.416;2023-03-01T04:02:43;94116.09;;;6.86;80.65
33151;BME280;19508;42.578;23.416;2023-03-01T04:05:11;94115.69;;;6.83;81.11
33151;BME280;19508;42.578;23.416;2023-03-01T04:07:37;94103.13;;;6.83;80.51
33151;BME280;19508;42.578;23.416;2023-03-01T04:10:09;94117.25;;;6.90;80.86
33151;BME280;19508;42.578;23.416;2023-03-01T04:12:35;94115.19;;;6.92;80.29
33151;BME280;19508;42.578;23.416;2023-03-01T04:15:03;94126.34;;;6.89;80.21
33151;BME280;19508;42.578;23.416;2023-03-01T04:17:41;94110.72;;;6.86;80.16
33151;BME280;19508;42.578;23.416;2023-03-01T04:20:11;94110.44;;;6.76;80.47
33151;BME280;19508;42.578;23.416;2023-03-01T04:22:37;94114.44;;;6.67;81.09
33151;BME280;19508;42.578;23.416;2023-03-01T04:25:03;94118.13;;;6.47;81.91
33151;BME280;19508;42.578;23.416;2023-03-01T04:27:34;94121.84;;;6.46;82.12
33151;BME280;19508;42.578;23.416;2023-03-01T04:29:59;94117.25;;;6.54;81.70
33151;BME280;19508;42.578;23.416;2023-03-01T04:32:25;94122.38;;;6.55;81.92
33151;BME280;19508;42.578;23.416;2023-03-01T04:34:50;94107.00;;;6.50;81.88
33151;BME280;19508;42.578;23.416;2023-03-01T04:37:16;94112.41;;;6.44;82.08
33151;BME280;19508;42.578;23.416;2023-03-01T04:39:41;94115.09;;;6.44;82.14
33151;BME280;19508;42.578;23.416;2023-03-01T04:42:11;94123.94;;;6.44;82.34
33151;BME280;19508;42.578;23.416;2023-03-01T04:44:37;94121.41;;;6.49;82.21
33151;BME280;19508;42.578;23.416;2023-03-01T04:47:02;94118.81;;;6.43;82.62
33151;BME280;19508;42.578;23.416;2023-03-01T04:49:28;94109.97;;;6.42;82.71
33151;BME280;19508;42.578;23.416;2023-03-01T04:51:54;94114.50;;;6.42;82.27
33151;BME280;19508;42.578;23.416;2023-03-01T04:54:19;94099.25;;;6.42;82.34
33151;BME280;19508;42.578;23.416;2023-03-01T04:56:44;94118.69;;;6.31;82.62
33151;BME280;19508;42.578;23.416;2023-03-01T04:59:10;94117.16;;;6.42;82.41
33151;BME280;19508;42.578;23.416;2023-03-01T05:01:37;94120.56;;;6.49;82.27
33151;BME280;19508;42.578;23.416;2023-03-01T05:04:03;94116.78;;;6.57;81.75
33151;BME280;19508;42.578;23.416;2023-03-01T05:06:30;94115.97;;;6.56;81.99
33151;BME280;19508;42.578;23.416;2023-03-01T05:08:56;94111.84;;;6.60;81.89
33151;BME280;19508;42.578;23.416;2023-03-01T05:11:21;94106.53;;;6.54;82.02
33151;BME280;19508;42.578;23.416;2023-03-01T05:13:47;94126.91;;;6.55;81.89
33151;BME280;19508;42.578;23.416;2023-03-01T05:16:15;94115.63;;;6.53;82.05
33151;BME280;19508;42.578;23.416;2023-03-01T05:18:42;94109.56;;;6.39;82.46
33151;BME280;19508;42.578;23.416;2023-03-01T05:21:13;94123.53;;;6.41;82.29
33151;BME280;19508;42.578;23.416;2023-03-01T05:23:41;94126.88;;;6.36;82.60
33151;BME280;19508;42.578;23.416;2023-03-01T05:26:06;94121.53;;;6.36;82.93
33151;BME280;19508;42.578;23.416;2023-03-01T05:28:32;94120.22;;;6.45;82.53
33151;BME280;19508;42.578;23.416;2023-03-01T05:30:58;94109.81;;;6.56;82.15
33151;BME280;19508;42.578;23.416;2023-03-01T05:33:24;94122.91;;;6.64;82.05
33151;BME280;19508;42.578;23.416;2023-03-01T05:35:50;94120.69;;;6.61;81.71
33151;BME280;19508;42.578;23.416;2023-03-01T05:38:17;94126.69;;;6.74;81.65
33151;BME280;19508;42.578;23.416;2023-03-01T05:40:44;94107.25;;;6.86;80.77
33151;BME280;19508;42.578;23.416;2023-03-01T05:43:11;94120.69;;;6.97;80.69
33151;BME280;19508;42.578;23.416;2023-03-01T05:45:37;94123.28;;;6.86;80.20
33151;BME280;19508;42.578;23.416;2023-03-01T05:48:04;94122.31;;;6.98;79.71
33151;BME280;19508;42.578;23.416;2023-03-01T05:50:37;94125.28;;;7.08;79.78
33151;BME280;19508;42.578;23.416;2023-03-01T05:53:06;94134.63;;;7.18;79.51
33151;BME280;19508;42.578;23.416;2023-03-01T05:55:34;94129.44;;;7.23;79.25
33151;BME280;19508;42.578;23.416;2023-03-01T05:58:04;94147.66;;;7.32;78.70
33151;BME280;19508;42.578;23.416;2023-03-01T06:00:30;94146.84;;;7.32;78.26
33151;BME280;19508;42.578;23.416;2023-03-01T06:02:56;94138.56;;;7.33;77.94
33151;BME280;19508;42.578;23.416;2023-03-01T06:05:23;94148.31;;;7.46;77.01
33151;BME280;19508;42.578;23.416;2023-03-01T06:07:49;94152.31;;;7.55;76.84
33151;BME280;19508;42.578;23.416;2023-03-01T06:10:19;94151.00;;;7.46;76.48
33151;BME280;19508;42.578;23.416;2023-03-01T06:12:45;94150.41;;;7.44;76.59
33151;BME280;19508;42.578;23.416;2023-03-01T06:15:13;94161.56;;;7.41;75.96
33151;BME280;19508;42.578;23.416;2023-03-01T06:17:40;94156.06;;;7.18;77.09
33151;BME280;19508;42.578;23.416;2023-03-01T06:20:26;94157.72;;;7.19;76.75
33151;BME280;19508;42.578;23.416;2023-03-01T06:22:52;94155.94;;;7.13;75.79
33151;BME280;19508;42.578;23.416;2023-03-01T06:25:25;94165.25;;;7.10;76.12
33151;BME280;19508;42.578;23.416;2023-03-01T06:27:51;94160.69;;;7.11;76.19
33151;BME280;19508;42.578;23.416;2023-03-01T06:30:22;94156.06;;;7.18;75.77
33151;BME280;19508;42.578;23.416;2023-03-01T06:32:48;94162.47;;;6.98;76.34
33151;BME280;19508;42.578;23.416;2023-03-01T06:35:15;94157.00;;;6.93;76.81
33151;BME280;19508;42.578;23.416;2023-03-01T06:37:44;94160.09;;;6.90;77.01
33151;BME280;19508;42.578;23.416;2023-03-01T06:40:10;94164.84;;;6.88;76.65
33151;BME280;19508;42.578;23.416;2023-03-01T06:42:38;94171.75;;;6.77;76.87
33151;BME280;19508;42.578;23.416;2023-03-01T06:45:05;94172.72;;;6.83;76.85
33151;BME280;19508;42.578;23.416;2023-03-01T06:47:32;94171.59;;;6.91;76.67
33151;BME280;19508;42.578;23.416;2023-03-01T06:49:58;94169.03;;;7.21;76.03
33151;BME280;19508;42.578;23.416;2023-03-01T06:52:24;94166.78;;;7.18;75.34
33151;BME280;19508;42.578;23.416;2023-03-01T06:54:49;94170.97;;;7.14;75.53
33151;BME280;19508;42.578;23.416;2023-03-01T06:57:15;94158.91;;;7.23;75.44
33151;BME280;19508;42.578;23.416;2023-03-01T06:59:40;94168.53;;;7.42;75.13
33151;BME280;19508;42.578;23.416;2023-03-01T07:02:05;94167.06;;;7.46;74.77
33151;BME280;19508;42.578;23.416;2023-03-01T07:04:31;94175.19;;;7.21;75.25
33151;BME280;19508;42.578;23.416;2023-03-01T07:06:57;94170.72;;;7.33;75.62
33151;BME280;19508;42.578;23.416;2023-03-01T07:09:23;94171.25;;;7.24;75.40
33151;BME280;19508;42.578;23.416;2023-03-01T07:11:49;94178.69;;;7.22;76.06
33151;BME280;19508;42.578;23.416;2023-03-01T07:14:15;94164.28;;;7.04;76.46
33151;BME280;19508;42.578;23.416;2023-03-01T07:16:41;94162.47;;;6.80;77.66
33151;BME280;19508;42.578;23.416;2023-03-01T07:19:06;94164.50;;;7.03;76.88
33151;BME280;19508;42.578;23.416;2023-03-01T07:21:31;94167.41;;;7.20;76.18
33151;BME280;19508;42.578;23.416;2023-03-01T07:23:57;94162.75;;;7.08;76.35
33151;BME280;19508;42.578;23.416;2023-03-01T07:26:22;94157.28;;;7.22;76.74
33151;BME280;19508;42.578;23.416;2023-03-01T07:28:48;94151.84;;;7.28;75.98
33151;BME280;19508;42.578;23.416;2023-03-01T07:31:13;94155.03;;;7.37;75.20
33151;BME280;19508;42.578;23.416;2023-03-01T07:33:39;94152.34;;;7.37;74.18
33151;BME280;19508;42.578;23.416;2023-03-01T07:36:05;94150.59;;;7.43;74.93
33151;BME280;19508;42.578;23.416;2023-03-01T07:38:31;94155.38;;;7.41;74.68
33151;BME280;19508;42.578;23.416;2023-03-01T07:41:01;94153.41;;;7.36;74.52
33151;BME280;19508;42.578;23.416;2023-03-01T07:43:28;94149.47;;;7.50;73.87
33151;BME280;19508;42.578;23.416;2023-03-01T07:45:54;94152.78;;;7.52;73.63
33151;BME280;19508;42.578;23.416;2023-03-01T07:48:19;94145.88;;;7.45;73.95
33151;BME280;19508;42.578;23.416;2023-03-01T07:50:44;94141.41;;;7.39;74.48
33151;BME280;19508;42.578;23.416;2023-03-01T07:53:10;94132.94;;;7.23;74.77
33151;BME280;19508;42.578;23.416;2023-03-01T07:55:36;94131.69;;;7.07;75.68
33151;BME280;19508;42.578;23.416;2023-03-01T07:58:01;94119.84;;;7.15;75.09
33151;BME280;19508;42.578;23.416;2023-03-01T08:00:27;94135.75;;;7.28;75.05
33151;BME280;19508;42.578;23.416;2023-03-01T08:02:52;94118.22;;;7.14;75.37
33151;BME280;19508;42.578;23.416;2023-03-01T08:05:18;94126.75;;;7.23;75.32
33151;BME280;19508;42.578;23.416;2023-03-01T08:07:43;94125.06;;;7.10;76.01
33151;BME280;19508;42.578;23.416;2023-03-01T08:10:09;94126.28;;;7.26;75.21
33151;BME280;19508;42.578;23.416;2023-03-01T08:12:35;94120.19;;;7.37;74.32
33151;BME280;19508;42.578;23.416;2023-03-01T08:15:00;94123.03;;;7.24;74.86
33151;BME280;19508;42.578;23.416;2023-03-01T08:17:26;94123.31;;;7.52;74.20
33151;BME280;19508;42.578;23.416;2023-03-01T08:19:51;94127.38;;;7.55;73.62
33151;BME280;19508;42.578;23.416;2023-03-01T08:22:17;94121.56;;;7.28;74.33
33151;BME280;19508;42.578;23.416;2023-03-01T08:24:42;94132.00;;;7.48;74.53
33151;BME280;19508;42.578;23.416;2023-03-01T08:27:07;94133.72;;;7.42;74.13
33151;BME280;19508;42.578;23.416;2023-03-01T08:29:34;94131.47;;;7.57;73.47
33151;BME280;19508;42.578;23.416;2023-03-01T08:31:59;94120.69;;;7.46;74.19
33151;BME280;19508;42.578;23.416;2023-03-01T08:34:25;94130.03;;;7.85;73.26
33151;BME280;19508;42.578;23.416;2023-03-01T08:36:51;94122.97;;;8.02;71.64
33151;BME280;19508;42.578;23.416;2023-03-01T08:39:19;94117.09;;;7.93;71.40
33151;BME280;19508;42.578;23.416;2023-03-01T08:41:45;94123.91;;;8.08;71.61
33151;BME280;19508;42.578;23.416;2023-03-01T08:44:12;94125.44;;;8.04;71.23
33151;BME280;19508;42.578;23.416;2023-03-01T08:46:40;94128.97;;;7.86;71.65
33151;BME280;19508;42.578;23.416;2023-03-01T08:49:11;94126.03;;;7.76;71.92
33151;BME280;19508;42.578;23.416;2023-03-01T08:51:36;94129.69;;;7.51;72.79
33151;BME280;19508;42.578;23.416;2023-03-01T08:54:03;94133.34;;;7.69;73.39
33151;BME280;19508;42.578;23.416;2023-03-01T08:56:29;94140.56;;;7.98;71.66
33151;BME280;19508;42.578;23.416;2023-03-01T08:58:54;94135.72;;;7.77;71.87
33151;BME280;19508;42.578;23.416;2023-03-01T09:01:20;94129.44;;;7.83;71.97
33151;BME280;19508;42.578;23.416;2023-03-01T09:03:46;94128.78;;;7.99;71.30
33151;BME280;19508;42.578;23.416;2023-03-01T09:06:11;94118.69;;;8.25;70.66
33151;BME280;19508;42.578;23.416;2023-03-01T09:08:38;94119.78;;;7.82;71.62
33151;BME280;19508;42.578;23.416;2023-03-01T09:11:05;94126.75;;;7.71;72.13
33151;BME280;19508;42.578;23.416;2023-03-01T09:13:31;94132.13;;;7.83;72.19
33151;BME280;19508;42.578;23.416;2023-03-01T09:15:58;94138.88;;;7.74;72.60
33151;BME280;19508;42.578;23.416;2023-03-01T09:18:24;94137.13;;;7.79;72.80
33151;BME280;19508;42.578;23.416;2023-03-01T09:20:49;94133.97;;;7.71;72.30
33151;BME280;19508;42.578;23.416;2023-03-01T09:23:15;94121.97;;;7.73;72.07
33151;BME280;19508;42.578;23.416;2023-03-01T09:25:40;94118.22;;;7.74;71.93
33151;BME280;19508;42.578;23.416;2023-03-01T09:28:06;94125.13;;;7.82;71.54
33151;BME280;19508;42.578;23.416;2023-03-01T09:30:31;94117.25;;;8.10;71.55
33151;BME280;19508;42.578;23.416;2023-03-01T09:32:57;94118.06;;;7.99;71.52
33151;BME280;19508;42.578;23.416;2023-03-01T09:35:22;94116.56;;;8.03;70.89
33151;BME280;19508;42.578;23.416;2023-03-01T09:37:48;94127.84;;;7.93;71.77
33151;BME280;19508;42.578;23.416;2023-03-01T09:40:18;94120.00;;;7.80;72.47
33151;BME280;19508;42.578;23.416;2023-03-01T09:43:00;94119.28;;;8.27;71.31
33151;BME280;19508;42.578;23.416;2023-03-01T09:45:35;94104.09;;;8.09;71.28
33151;BME280;19508;42.578;23.416;2023-03-01T09:48:05;94109.25;;;8.22;70.80
33151;BME280;19508;42.578;23.416;2023-03-01T09:50:41;94116.56;;;8.03;71.77
33151;BME280;19508;42.578;23.416;2023-03-01T09:53:16;94108.38;;;7.98;72.21
33151;BME280;19508;42.578;23.416;2023-03-01T10:00:56;94105.84;;;8.27;71.23
33151;BME280;19508;42.578;23.416;2023-03-01T10:03:30;94104.13;;;8.20;72.01
33151;BME280;19508;42.578;23.416;2023-03-01T10:08:32;94094.31;;;8.26;71.57
33151;BME280;19508;42.578;23.416;2023-03-01T10:11:02;94089.09;;;8.43;71.50
33151;BME280;19508;42.578;23.416;2023-03-01T10:19:00;94095.88;;;8.57;70.41
33151;BME280;19508;42.578;23.416;2023-03-01T10:21:27;94090.50;;;8.57;70.52
33151;BME280;19508;42.578;23.416;2023-03-01T10:24:05;94081.72;;;8.85;69.58
33151;BME280;19508;42.578;23.416;2023-03-01T10:26:44;94083.53;;;8.96;68.99
33151;BME280;19508;42.578;23.416;2023-03-01T10:29:13;94073.81;;;9.19;68.53
33151;BME280;19508;42.578;23.416;2023-03-01T10:31:46;94070.94;;;9.37;67.79
33151;BME280;19508;42.578;23.416;2023-03-01T10:34:18;94069.69;;;9.56;66.63
33151;BME280;19508;42.578;23.416;2023-03-01T10:36:47;94075.31;;;9.55;66.53
33151;BME280;19508;42.578;23.416;2023-03-01T10:39:19;94068.88;;;9.56;66.46
33151;BME280;19508;42.578;23.416;2023-03-01T10:42:05;94060.25;;;9.71;65.56
33151;BME280;19508;42.578;23.416;2023-03-01T10:44:46;94069.19;;;9.31;67.67
33151;BME280;19508;42.578;23.416;2023-03-01T10:47:32;94057.25;;;9.39;66.80
33151;BME280;19508;42.578;23.416;2023-03-01T10:50:04;94056.50;;;9.26;67.06
33151;BME280;19508;42.578;23.416;2023-03-01T10:52:36;94057.41;;;9.32;67.38
33151;BME280;19508;42.578;23.416;2023-03-01T10:55:23;94056.75;;;9.13;67.75
33151;BME280;19508;42.578;23.416;2023-03-01T10:57:50;94047.97;;;8.77;69.13
33151;BME280;19508;42.578;23.416;2023-03-01T11:00:24;94052.63;;;8.94;68.48
33151;BME280;19508;42.578;23.416;2023-03-01T11:03:10;94048.75;;;9.01;68.11
33151;BME280;19508;42.578;23.416;2023-03-01T11:05:50;94057.66;;;8.79;69.48
33151;BME280;19508;42.578;23.416;2023-03-01T11:08:32;94057.66;;;8.90;68.81
33151;BME280;19508;42.578;23.416;2023-03-01T11:13:54;94064.94;;;8.31;70.62
33151;BME280;19508;42.578;23.416;2023-03-01T11:16:31;94060.75;;;8.47;71.26
33151;BME280;19508;42.578;23.416;2023-03-01T11:24:18;94051.19;;;8.51;70.77
33151;BME280;19508;42.578;23.416;2023-03-01T11:26:50;94059.69;;;8.60;70.81
33151;BME280;19508;42.578;23.416;2023-03-01T11:29:38;94052.09;;;8.68;70.88
33151;BME280;19508;42.578;23.416;2023-03-01T11:32:08;94044.97;;;8.62;70.11
33151;BME280;19508;42.578;23.416;2023-03-01T11:34:42;94056.03;;;8.77;70.05
33151;BME280;19508;42.578;23.416;2023-03-01T11:37:26;94045.22;;;8.49;70.03
33151;BME280;19508;42.578;23.416;2023-03-01T11:40:15;94050.56;;;8.72;70.31
33151;BME280;19508;42.578;23.416;2023-03-01T11:45:22;94049.66;;;8.55;70.37
33151;BME280;19508;42.578;23.416;2023-03-01T11:50:41;94032.28;;;8.58;70.45
33151;BME280;19508;42.578;23.416;2023-03-01T11:53:38;94025.16;;;8.63;70.16
33151;BME280;19508;42.578;23.416;2023-03-01T11:56:43;94021.88;;;8.73;70.19
33151;BME280;19508;42.578;23.416;2023-03-01T11:59:32;94032.75;;;8.95;69.26
33151;BME280;19508;42.578;23.416;2023-03-01T12:04:53;94031.63;;;9.19;68.76
33151;BME280;19508;42.578;23.416;2023-03-01T12:08:17;94020.88;;;9.19;68.38
33151;BME280;19508;42.578;23.416;2023-03-01T12:10:42;94020.72;;;9.54;67.37
33151;BME280;19508;42.578;23.416;2023-03-01T12:21:18;94015.13;;;10.06;64.86
33151;BME280;19508;42.578;23.416;2023-03-01T12:29:51;94006.06;;;9.62;66.68
33151;BME280;19508;42.578;23.416;2023-03-01T12:40:43;93999.66;;;9.97;64.86
33151;BME280;19508;42.578;23.416;2023-03-01T12:43:19;93991.66;;;9.68;66.44
33151;BME280;19508;42.578;23.416;2023-03-01T12:46:10;93988.06;;;9.96;65.58
33151;BME280;19508;42.578;23.416;2023-03-01T12:48:55;93997.13;;;9.73;66.35
33151;BME280;19508;42.578;23.416;2023-03-01T12:51:26;93992.00;;;9.88;65.59
33151;BME280;19508;42.578;23.416;2023-03-01T12:53:55;93995.34;;;9.96;66.34
33151;BME280;19508;42.578;23.416;2023-03-01T12:56:30;93994.19;;;9.58;67.00
33151;BME280;19508;42.578;23.416;2023-03-01T13:02:02;93983.84;;;9.21;68.54
33151;BME280;19508;42.578;23.416;2023-03-01T13:10:14;93997.88;;;9.23;68.62
33151;BME280;19508;42.578;23.416;2023-03-01T13:13:23;94007.91;;;8.88;69.97
33151;BME280;19508;42.578;23.416;2023-03-01T13:15:47;93999.41;;;8.91;70.43
33151;BME280;19508;42.578;23.416;2023-03-01T13:28:46;94007.47;;;8.79;71.24
33151;BME280;19508;42.578;23.416;2023-03-01T13:33:48;93990.66;;;8.84;70.67
33151;BME280;19508;42.578;23.416;2023-03-01T13:46:53;93986.47;;;9.04;70.29
33151;BME280;19508;42.578;23.416;2023-03-01T13:49:40;93990.66;;;8.84;71.32
33151;BME280;19508;42.578;23.416;2023-03-01T13:54:48;93979.09;;;8.83;71.10
33151;BME280;19508;42.578;23.416;2023-03-01T13:57:22;93986.47;;;8.76;71.23
33151;BME280;19508;42.578;23.416;2023-03-01T13:59:50;93993.09;;;8.85;71.00
33151;BME280;19508;42.578;23.416;2023-03-01T14:02:15;93977.03;;;8.73;71.14
33151;BME280;19508;42.578;23.416;2023-03-01T14:04:41;93982.78;;;8.65;71.55
33151;BME280;19508;42.578;23.416;2023-03-01T14:09:39;93991.09;;;8.92;70.93
33151;BME280;19508;42.578;23.416;2023-03-01T14:15:08;93980.06;;;9.05;70.85
33151;BME280;19508;42.578;23.416;2023-03-01T14:17:53;93982.78;;;8.94;70.91
33151;BME280;19508;42.578;23.416;2023-03-01T14:22:47;93986.81;;;8.80;71.73
33151;BME280;19508;42.578;23.416;2023-03-01T14:25:32;93973.09;;;8.64;71.61
33151;BME280;19508;42.578;23.416;2023-03-01T14:28:02;93984.97;;;8.68;72.22
33151;BME280;19508;42.578;23.416;2023-03-01T14:30:37;93982.22;;;8.63;72.42
33151;BME280;19508;42.578;23.416;2023-03-01T14:33:18;93981.84;;;8.60;72.23
33151;BME280;19508;42.578;23.416;2023-03-01T14:38:44;93984.88;;;8.63;71.85
33151;BME280;19508;42.578;23.416;2023-03-01T14:41:14;93991.34;;;8.15;73.39
33151;BME280;19508;42.578;23.416;2023-03-01T14:44:15;93987.81;;;8.27;73.33
33151;BME280;19508;42.578;23.416;2023-03-01T14:46:44;93980.59;;;8.15;73.63
33151;BME280;19508;42.578;23.416;2023-03-01T14:49:21;93979.69;;;7.98;74.50
33151;BME280;19508;42.578;23.416;2023-03-01T14:51:57;93981.31;;;7.87;75.64
33151;BME280;19508;42.578;23.416;2023-03-01T14:54:37;93983.06;;;7.93;75.35
33151;BME280;19508;42.578;23.416;2023-03-01T14:57:05;93963.94;;;7.90;75.01
33151;BME280;19508;42.578;23.416;2023-03-01T14:59:33;93981.53;;;8.09;74.66
33151;BME280;19508;42.578;23.416;2023-03-01T15:01:59;93984.69;;;7.95;74.42
33151;BME280;19508;42.578;23.416;2023-03-01T15:04:26;93973.72;;;7.73;75.84